Time;durP1;ratioP1;P1;durP2;ratioP2;P2;SDS_P1;SDS_P2;PMS_P1;PMS_P2;Temp;Humidity;BMP_temperature;BMP_pressure;BME280_temperature;BME280_humidity;BME280_pressure;Samples;Min_cycle;Max_cycle;Signal;HPM_P1;HPM_P2
2021/05/26 00:01:58;;;;;;;18.15;15.93;;;;;;;19.33;63.67;100108.81;5045824;28;20029;-26
2021/05/26 00:04:23;;;;;;;17.27;15.32;;;;;;;19.31;63.69;100113.69;5046424;28;20033;-25
2021/05/26 00:06:49;;;;;;;18.67;15.65;;;;;;;19.39;63.75;100105.84;5048663;28;20025;-25
2021/05/26 00:09:15;;;;;;;19.30;15.80;;;;;;;19.72;62.67;100129.81;5050414;28;20032;-26
2021/05/26 00:11:40;;;;;;;15.70;14.15;;;;;;;19.37;63.52;100101.78;5050177;28;20501;-25
2021/05/26 00:14:06;;;;;;;19.65;14.52;;;;;;;19.10;64.99;100113.75;5050370;28;20032;-26
2021/05/26 00:16:31;;;;;;;20.20;13.20;;;;;;;18.92;65.50;100112.47;5050256;28;20033;-25
2021/05/26 00:18:57;;;;;;;15.18;13.60;;;;;;;18.91;65.32;100110.03;5050102;28;20033;-25
2021/05/26 00:21:24;;;;;;;14.13;11.68;;;;;;;19.13;65.28;100104.31;5049994;28;20459;-25
2021/05/26 00:23:49;;;;;;;13.23;11.48;;;;;;;18.86;65.52;100098.16;5050261;28;20040;-25
2021/05/26 00:26:15;;;;;;;13.10;11.80;;;;;;;18.80;66.32;100120.84;5050021;28;20111;-25
2021/05/26 00:28:42;;;;;;;15.77;12.02;;;;;;;19.11;63.44;100104.59;5050321;28;20039;-26
2021/05/26 00:31:09;;;;;;;13.35;12.05;;;;;;;19.41;63.01;100092.84;5049969;28;20021;-26
2021/05/26 00:33:35;;;;;;;14.68;11.55;;;;;;;18.98;65.24;100105.13;5049822;28;20075;-25
2021/05/26 00:36:00;;;;;;;18.15;11.80;;;;;;;18.47;66.49;100117.59;5049653;28;20029;-26
2021/05/26 00:38:26;;;;;;;12.30;10.80;;;;;;;18.43;66.57;100100.31;5049736;28;20409;-26
2021/05/26 00:40:51;;;;;;;13.63;10.30;;;;;;;18.58;66.21;100096.81;5049645;28;20063;-26
2021/05/26 00:43:17;;;;;;;12.27;10.57;;;;;;;18.72;65.49;100107.88;5049727;28;20114;-26
2021/05/26 00:45:43;;;;;;;12.65;11.27;;;;;;;18.59;66.05;100108.41;5050128;28;20147;-26
2021/05/26 00:48:09;;;;;;;11.55;10.40;;;;;;;18.29;66.78;100099.25;5049741;28;20040;-25
2021/05/26 00:50:35;;;;;;;14.43;10.48;;;;;;;18.36;66.12;100110.56;5049004;28;20053;-25
2021/05/26 00:53:05;;;;;;;14.50;11.00;;;;;;;18.04;66.42;100094.59;5049413;28;20040;-25
2021/05/26 00:55:30;;;;;;;31.17;13.20;;;;;;;17.74;67.50;100098.03;5049869;28;20024;-25
2021/05/26 00:57:57;;;;;;;41.15;14.23;;;;;;;17.72;67.71;100106.38;5049474;28;20091;-25
2021/05/26 01:00:24;;;;;;;18.92;11.90;;;;;;;18.24;65.92;100112.72;5048271;28;20500;-26
2021/05/26 01:02:50;;;;;;;19.58;10.40;;;;;;;17.96;66.76;100095.13;5049121;28;20120;-25
2021/05/26 01:05:17;;;;;;;15.25;10.93;;;;;;;17.89;67.44;100094.59;5049312;28;20033;-25
2021/05/26 01:07:42;;;;;;;12.82;10.20;;;;;;;18.09;66.04;100094.63;5050379;28;20020;-25
2021/05/26 01:10:10;;;;;;;13.32;9.70;;;;;;;18.08;66.01;100109.19;5050985;28;20039;-26
2021/05/26 01:12:35;;;;;;;11.32;9.45;;;;;;;17.97;66.72;100089.47;5049185;28;20036;-25
2021/05/26 01:15:01;;;;;;;11.82;10.13;;;;;;;18.16;65.96;100105.16;5048931;28;20120;-26
2021/05/26 01:17:27;;;;;;;13.20;10.25;;;;;;;17.85;65.85;100097.81;5047446;28;20056;-26
2021/05/26 01:19:52;;;;;;;13.48;11.23;;;;;;;17.38;67.65;100079.84;5048983;28;20036;-25
2021/05/26 01:22:18;;;;;;;12.25;10.73;;;;;;;17.88;67.74;100109.97;5048912;28;20090;-25
2021/05/26 01:24:43;;;;;;;13.82;10.52;;;;;;;17.95;66.95;100107.00;5048852;28;20029;-26
2021/05/26 01:27:09;;;;;;;13.85;10.05;;;;;;;17.94;66.62;100087.31;5048943;28;20405;-25
2021/05/26 01:29:34;;;;;;;13.57;10.38;;;;;;;18.15;65.54;100092.75;5048857;28;20029;-26
2021/05/26 01:32:00;;;;;;;17.33;10.48;;;;;;;18.27;64.63;100101.41;5048853;28;20033;-25
2021/05/26 01:34:25;;;;;;;11.77;9.70;;;;;;;18.28;65.19;100097.59;5048399;28;20021;-25
2021/05/26 01:36:51;;;;;;;10.52;9.52;;;;;;;17.89;64.28;100079.22;5048682;28;20028;-25
2021/05/26 01:39:17;;;;;;;10.70;9.63;;;;;;;17.46;66.54;100102.78;5048606;28;20554;-25
2021/05/26 01:41:45;;;;;;;14.55;9.80;;;;;;;17.44;67.44;100067.19;5048682;28;20093;-25
2021/05/26 01:44:11;;;;;;;10.75;9.10;;;;;;;17.61;66.92;100094.78;5048321;28;20033;-26
2021/05/26 01:46:37;;;;;;;12.07;10.35;;;;;;;17.44;66.79;100086.06;5048651;28;20466;-26
2021/05/26 01:49:04;;;;;;;14.38;10.63;;;;;;;17.24;67.39;100094.88;5048574;28;20040;-25
2021/05/26 01:51:29;;;;;;;13.98;9.98;;;;;;;17.19;67.63;100098.34;5048445;28;20083;-26
2021/05/26 01:53:55;;;;;;;13.77;10.18;;;;;;;17.19;68.56;100094.84;5048245;28;20025;-25
2021/05/26 01:56:23;;;;;;;21.48;10.23;;;;;;;17.18;67.62;100080.56;5048287;28;20036;-25
2021/05/26 01:58:52;;;;;;;17.88;9.93;;;;;;;17.10;67.60;100093.72;5048132;28;20412;-25
2021/05/26 02:01:19;;;;;;;10.48;9.10;;;;;;;17.05;68.23;100086.44;5048323;28;20063;-25
2021/05/26 02:03:45;;;;;;;10.93;9.77;;;;;;;16.86;68.26;100073.38;5048121;28;20876;-25
2021/05/26 02:06:13;;;;;;;16.60;10.05;;;;;;;17.19;68.02;100102.94;5047775;28;20043;-26
2021/05/26 02:08:41;;;;;;;15.45;9.32;;;;;;;17.35;67.47;100101.13;5048378;28;20033;-25
2021/05/26 02:13:51;;;;;;;11.57;9.93;;;;;;;17.25;66.93;100108.09;5048249;28;20170;-25
2021/05/26 02:16:17;;;;;;;13.65;11.02;;;;;;;17.36;68.30;100100.84;5047514;28;20033;-25
2021/05/26 02:18:42;;;;;;;12.30;10.15;;;;;;;17.12;68.92;100105.03;5047842;28;20449;-26
2021/05/26 02:21:08;;;;;;;15.25;12.77;;;;;;;17.47;67.57;100110.63;5047934;28;20041;-25
2021/05/26 02:23:33;;;;;;;13.65;11.60;;;;;;;16.94;69.32;100111.66;5049914;28;20467;-25
2021/05/26 02:25:59;;;;;;;12.95;11.75;;;;;;;17.08;69.45;100115.56;5048417;28;20033;-25
2021/05/26 02:28:24;;;;;;;14.07;11.45;;;;;;;16.99;70.10;100114.41;5047340;28;20504;-26
2021/05/26 02:30:50;;;;;;;13.05;11.77;;;;;;;17.21;68.48;100123.16;5046760;28;20029;-25
2021/05/26 02:33:16;;;;;;;12.55;11.25;;;;;;;17.12;68.12;100113.13;5047550;28;20032;-25
2021/05/26 02:35:41;;;;;;;13.45;11.82;;;;;;;16.78;68.40;100114.25;5047615;28;20428;-26
2021/05/26 02:38:07;;;;;;;13.15;11.27;;;;;;;17.03;69.88;100134.38;5047464;28;20413;-25
2021/05/26 02:40:33;;;;;;;16.48;12.90;;;;;;;17.16;67.59;100112.38;5047206;28;20025;-26
2021/05/26 02:43:00;;;;;;;14.20;12.85;;;;;;;17.30;68.35;100136.13;5047143;28;20033;-25
2021/05/26 02:45:25;;;;;;;14.25;12.75;;;;;;;17.40;68.10;100144.28;5047519;28;20041;-26
2021/05/26 02:47:51;;;;;;;14.10;12.52;;;;;;;17.37;69.02;100126.75;5046613;28;20052;-26
2021/05/26 02:50:17;;;;;;;14.98;13.25;;;;;;;17.17;67.63;100121.25;5046905;28;20118;-26
2021/05/26 02:52:44;;;;;;;14.20;11.50;;;;;;;16.77;69.09;100134.16;5047340;28;20033;-25
2021/05/26 02:55:10;;;;;;;12.50;11.10;;;;;;;16.50;72.19;100133.41;5047009;28;20040;-25
2021/05/26 02:57:36;;;;;;;13.30;11.77;;;;;;;16.77;70.45;100142.22;5047068;28;20033;-26
2021/05/26 03:00:01;;;;;;;14.85;12.80;;;;;;;16.93;69.56;100137.00;5047275;28;20033;-26
2021/05/26 03:02:27;;;;;;;14.75;12.63;;;;;;;16.83;70.36;100119.69;5046973;28;20025;-26
2021/05/26 03:04:52;;;;;;;14.18;12.27;;;;;;;17.03;69.65;100147.84;5047804;28;20113;-26
2021/05/26 03:07:18;;;;;;;14.80;11.95;;;;;;;16.86;69.82;100148.81;5047273;28;20024;-25
2021/05/26 03:09:44;;;;;;;15.00;13.70;;;;;;;16.77;70.00;100147.63;5047025;28;20043;-26
2021/05/26 03:12:09;;;;;;;15.55;14.07;;;;;;;16.31;71.26;100131.09;5047181;28;20094;-26
2021/05/26 03:14:35;;;;;;;26.35;14.90;;;;;;;16.20;73.16;100148.19;5045642;28;20025;-25
2021/05/26 03:17:00;;;;;;;15.68;14.25;;;;;;;16.32;71.59;100143.47;5046971;28;20032;-25
2021/05/26 03:19:26;;;;;;;15.55;14.02;;;;;;;16.63;70.99;100146.44;5047175;28;20047;-26
2021/05/26 03:21:51;;;;;;;14.63;13.23;;;;;;;16.58;71.07;100151.78;5047007;28;20033;-26
2021/05/26 03:24:16;;;;;;;15.30;13.75;;;;;;;16.58;70.37;100151.78;5046532;28;20025;-26
2021/05/26 03:26:42;;;;;;;48.17;14.85;;;;;;;16.61;70.47;100152.09;5046987;28;20039;-25
2021/05/26 03:29:07;;;;;;;15.50;12.07;;;;;;;16.73;70.50;100153.78;5047214;28;20078;-26
2021/05/26 03:31:33;;;;;;;13.75;11.38;;;;;;;17.04;70.37;100162.91;5046957;28;20029;-26
2021/05/26 03:33:59;;;;;;;13.23;10.05;;;;;;;17.17;67.95;100154.41;5046869;28;20033;-25
2021/05/26 03:36:24;;;;;;;13.38;9.77;;;;;;;17.30;68.93;100168.47;5046715;28;20033;-26
2021/05/26 03:38:49;;;;;;;18.70;8.77;;;;;;;17.60;66.97;100165.94;5047257;28;20037;-26
2021/05/26 03:41:15;;;;;;;11.00;8.90;;;;;;;17.79;66.41;100171.66;5050575;28;20032;-25
2021/05/26 03:43:40;;;;;;;24.45;9.48;;;;;;;17.93;65.63;100165.81;5049427;28;20029;-26
2021/05/26 03:46:06;;;;;;;10.75;7.95;;;;;;;18.00;65.22;100171.78;5050639;28;20036;-25
2021/05/26 03:48:31;;;;;;;11.60;8.05;;;;;;;18.17;64.53;100171.56;5050513;28;20397;-25
2021/05/26 03:50:57;;;;;;;9.23;8.27;;;;;;;17.99;64.90;100176.38;5050630;28;20049;-26
2021/05/26 03:53:22;;;;;;;10.60;8.20;;;;;;;17.48;66.08;100174.22;5050465;28;20029;-25
2021/05/26 03:55:47;;;;;;;8.93;7.47;;;;;;;17.00;67.36;100186.91;5050497;28;20048;-25
2021/05/26 03:58:15;;;;;;;9.68;7.93;;;;;;;16.90;68.57;100180.59;5050165;28;20037;-26
2021/05/26 04:00:40;;;;;;;10.17;8.27;;;;;;;16.91;68.53;100176.84;5050683;28;20048;-25
2021/05/26 04:03:06;;;;;;;10.88;7.78;;;;;;;17.26;68.02;100182.50;5050525;28;20037;-26
2021/05/26 04:05:31;;;;;;;9.63;7.50;;;;;;;16.86;68.64;100164.97;5050550;28;20040;-25
2021/05/26 04:07:57;;;;;;;9.35;7.53;;;;;;;16.78;69.56;100184.25;5050362;28;20039;-25
2021/05/26 04:10:22;;;;;;;8.23;6.93;;;;;;;17.36;67.51;100189.00;5049809;28;20033;-25
2021/05/26 04:12:47;;;;;;;10.35;7.70;;;;;;;17.56;66.58;100193.69;5050890;28;20033;-26
2021/05/26 04:15:13;;;;;;;9.85;6.97;;;;;;;17.64;66.59;100193.19;5050433;28;20040;-25
2021/05/26 04:17:39;;;;;;;7.85;7.03;;;;;;;17.54;66.07;100196.66;5049005;28;20033;-25
2021/05/26 04:20:05;;;;;;;8.07;6.50;;;;;;;17.53;66.69;100200.44;5050281;28;20040;-25
2021/05/26 04:22:32;;;;;;;9.45;6.22;;;;;;;17.22;66.70;100173.31;5049741;28;20037;-25
2021/05/26 04:24:57;;;;;;;8.63;6.40;;;;;;;17.68;65.85;100197.00;5049862;28;20032;-25
2021/05/26 04:27:23;;;;;;;10.35;5.95;;;;;;;17.72;65.60;100189.19;5049856;28;20025;-25
2021/05/26 04:29:48;;;;;;;8.23;5.53;;;;;;;17.65;65.74;100211.81;5050173;28;20040;-25
2021/05/26 04:32:13;;;;;;;6.88;5.53;;;;;;;17.44;66.23;100210.88;5049835;28;20040;-26
2021/05/26 04:34:39;;;;;;;9.75;6.43;;;;;;;17.56;66.02;100208.00;5049803;28;20036;-25
2021/05/26 04:37:04;;;;;;;6.68;5.30;;;;;;;17.59;66.01;100215.56;5049777;28;20044;-27
2021/05/26 04:39:30;;;;;;;7.75;6.00;;;;;;;17.85;65.36;100203.03;5048672;28;20041;-25
2021/05/26 04:41:55;;;;;;;7.93;5.70;;;;;;;18.27;64.35;100215.59;5049797;28;20378;-26
2021/05/26 04:44:21;;;;;;;7.53;5.47;;;;;;;17.91;65.31;100211.94;5049692;28;20031;-26
2021/05/26 04:46:46;;;;;;;6.68;4.88;;;;;;;17.98;65.18;100215.22;5049732;28;20033;-25
2021/05/26 04:49:12;;;;;;;7.38;4.63;;;;;;;18.31;64.69;100223.97;5049599;28;20086;-25
2021/05/26 04:51:38;;;;;;;6.28;4.93;;;;;;;18.33;64.70;100204.78;5049305;28;20429;-25
2021/05/26 04:54:03;;;;;;;6.95;4.47;;;;;;;18.52;63.56;100221.31;5048480;28;20132;-25
2021/05/26 04:56:29;;;;;;;7.57;4.78;;;;;;;18.62;62.93;100218.63;5049418;28;20489;-25
2021/05/26 04:58:54;;;;;;;5.60;4.30;;;;;;;18.85;62.85;100225.41;5049343;28;20025;-25
2021/05/26 05:01:21;;;;;;;5.40;4.13;;;;;;;18.92;61.99;100222.44;5049367;28;20047;-25
2021/05/26 05:03:47;;;;;;;5.40;4.20;;;;;;;18.83;61.25;100209.47;5049366;28;20036;-25
2021/05/26 05:06:13;;;;;;;6.20;4.15;;;;;;;18.76;61.33;100233.22;5049239;28;20029;-25
2021/05/26 05:08:38;;;;;;;6.65;4.13;;;;;;;18.69;61.55;100227.25;5048948;28;20413;-25
2021/05/26 05:11:04;;;;;;;5.57;3.85;;;;;;;18.42;63.07;100216.69;5049027;28;20401;-26
2021/05/26 05:13:30;;;;;;;5.90;3.92;;;;;;;18.71;62.41;100230.50;5049007;28;20086;-25
2021/05/26 05:15:55;;;;;;;12.13;3.83;;;;;;;18.64;62.23;100229.97;5049463;28;20025;-26
2021/05/26 05:18:21;;;;;;;6.63;3.60;;;;;;;18.79;62.88;100248.09;5049050;28;20037;-26
2021/05/26 05:20:46;;;;;;;6.68;3.78;;;;;;;19.25;61.15;100254.31;5049312;28;20037;-26
2021/05/26 05:23:12;;;;;;;5.50;3.78;;;;;;;18.92;61.28;100241.34;5048828;28;20029;-25
2021/05/26 05:25:37;;;;;;;6.30;3.55;;;;;;;18.88;61.00;100241.09;5048730;28;20493;-25
2021/05/26 05:28:05;;;;;;;4.68;3.30;;;;;;;18.76;61.63;100233.22;5048887;28;20033;-25
2021/05/26 05:30:30;;;;;;;6.93;3.38;;;;;;;18.45;62.04;100199.97;5048762;28;20063;-25
2021/05/26 05:32:56;;;;;;;6.22;3.17;;;;;;;18.68;62.38;100241.84;5048957;28;20121;-25
2021/05/26 05:35:21;;;;;;;5.78;3.28;;;;;;;18.81;60.64;100243.25;5048917;28;20033;-26
2021/05/26 05:37:47;;;;;;;5.78;3.42;;;;;;;19.17;61.04;100237.84;5048514;28;20512;-26
2021/05/26 05:40:12;;;;;;;6.03;3.50;;;;;;;19.56;59.99;100237.25;5046996;28;20040;-26
2021/05/26 05:42:38;;;;;;;5.97;3.60;;;;;;;19.26;60.99;100238.91;5048711;28;20453;-25
2021/05/26 05:45:04;;;;;;;7.15;3.50;;;;;;;18.74;61.17;100245.38;5048196;28;20463;-26
2021/05/26 05:47:30;;;;;;;7.57;3.47;;;;;;;19.09;60.34;100247.31;5047395;28;20025;-25
2021/05/26 05:49:55;;;;;;;5.95;3.28;;;;;;;19.49;60.24;100242.91;5048200;28;20413;-26
2021/05/26 05:52:21;;;;;;;6.05;3.60;;;;;;;19.85;58.32;100245.56;5048165;28;20033;-26
2021/05/26 05:54:46;;;;;;;4.90;3.28;;;;;;;19.66;57.96;100240.72;5048119;28;20029;-26
2021/05/26 05:57:12;;;;;;;5.45;3.53;;;;;;;19.94;59.27;100245.78;5048684;28;20417;-25
2021/05/26 05:59:37;;;;;;;12.02;4.57;;;;;;;20.06;58.77;100244.41;5048432;28;20032;-25
2021/05/26 06:02:03;;;;;;;7.80;3.75;;;;;;;20.09;58.35;100237.63;5048065;28;20033;-25
2021/05/26 06:04:28;;;;;;;5.47;3.53;;;;;;;20.31;57.80;100244.53;5047787;28;20039;-26
2021/05/26 06:06:54;;;;;;;6.50;3.78;;;;;;;20.20;58.39;100243.78;5047959;28;20441;-26
2021/05/26 06:09:21;;;;;;;8.70;3.28;;;;;;;20.31;58.08;100244.53;5048190;28;20025;-26
2021/05/26 06:11:47;;;;;;;6.53;3.70;;;;;;;20.51;58.06;100238.19;5048267;28;20033;-25
2021/05/26 06:14:13;;;;;;;5.70;3.63;;;;;;;20.69;57.54;100224.00;5047967;28;20874;-26
2021/05/26 06:16:39;;;;;;;4.60;3.83;;;;;;;20.76;56.52;100227.22;5048158;28;20032;-26
2021/05/26 06:19:05;;;;;;;8.52;3.83;;;;;;;20.85;56.26;100222.00;5047837;28;20087;-25
2021/05/26 06:21:31;;;;;;;8.98;5.45;;;;;;;20.85;55.87;100220.09;5047618;28;20500;-25
2021/05/26 06:23:56;;;;;;;6.72;4.50;;;;;;;20.83;57.70;100224.97;5047742;28;20481;-25
2021/05/26 06:26:22;;;;;;;6.85;4.22;;;;;;;21.18;56.67;100228.47;5047554;28;20554;-25
2021/05/26 06:28:47;;;;;;;7.25;3.50;;;;;;;21.03;55.25;100218.59;5047868;28;20037;-25
2021/05/26 06:31:13;;;;;;;20.95;18.98;;;;;;;20.70;56.07;100225.63;5047640;28;20051;-26
2021/05/26 06:33:42;;;;;;;59.53;54.50;;;;;;;21.13;55.81;100217.69;5047633;28;20025;-25
2021/05/26 06:36:07;;;;;;;13.13;11.38;;;;;;;21.37;56.01;100239.44;5047353;28;20040;-25
2021/05/26 06:38:33;;;;;;;6.15;4.40;;;;;;;21.66;53.20;100234.00;5047315;28;20479;-25
2021/05/26 06:40:58;;;;;;;4.80;3.50;;;;;;;21.58;54.19;100236.53;5047916;28;20547;-25
2021/05/26 06:43:24;;;;;;;5.65;3.58;;;;;;;21.86;53.66;100216.66;5047811;28;20031;-25
2021/05/26 06:45:49;;;;;;;5.60;3.90;;;;;;;21.49;53.93;100235.53;5047531;28;20448;-26
2021/05/26 06:48:15;;;;;;;16.70;10.63;;;;;;;21.69;53.33;100218.22;5047061;28;20040;-25
2021/05/26 06:50:40;;;;;;;11.32;6.60;;;;;;;22.28;55.09;100216.94;5047058;28;20414;-26
2021/05/26 06:53:05;;;;;;;11.48;6.80;;;;;;;22.34;53.66;100221.22;5047271;28;20048;-26
2021/05/26 06:55:31;;;;;;;6.75;4.32;;;;;;;22.35;52.76;100220.13;5047737;28;20032;-25
2021/05/26 06:57:56;;;;;;;16.05;10.10;;;;;;;22.52;51.87;100224.22;5047269;28;20516;-25
2021/05/26 07:00:22;;;;;;;15.75;10.20;;;;;;;22.38;53.44;100227.66;5047118;28;20098;-25
2021/05/26 07:02:47;;;;;;;9.02;6.00;;;;;;;22.14;53.53;100210.59;5047153;28;20041;-25
2021/05/26 07:05:13;;;;;;;8.30;5.63;;;;;;;21.83;54.69;100219.13;5046979;28;20409;-26
2021/05/26 07:07:38;;;;;;;17.67;9.35;;;;;;;22.04;53.40;100220.47;5046994;28;20078;-26
2021/05/26 07:10:05;;;;;;;7.07;4.72;;;;;;;22.17;55.17;100218.16;5047180;28;20044;-25
2021/05/26 07:12:31;;;;;;;25.15;15.85;;;;;;;22.30;53.51;100217.47;5047045;28;20104;-25
2021/05/26 07:14:56;;;;;;;20.95;13.23;;;;;;;22.28;53.44;100203.38;5047018;28;20033;-25
2021/05/26 07:17:22;;;;;;;7.70;5.40;;;;;;;22.37;53.21;100203.50;5046674;28;20055;-25
2021/05/26 07:19:47;;;;;;;8.93;5.90;;;;;;;22.74;54.86;100216.28;5047031;28;20130;-25
2021/05/26 07:22:12;;;;;;;10.35;6.78;;;;;;;23.04;52.95;100222.31;5045464;28;20083;-25
2021/05/26 07:24:38;;;;;;;8.60;5.85;;;;;;;23.21;51.08;100214.41;5047005;28;20036;-25
2021/05/26 07:27:04;;;;;;;9.18;6.13;;;;;;;23.20;51.17;100218.22;5046882;28;20025;-25
2021/05/26 07:29:29;;;;;;;8.85;6.35;;;;;;;24.02;49.57;100211.19;5047232;28;20033;-25
2021/05/26 07:31:54;;;;;;;7.65;6.30;;;;;;;24.29;49.31;100198.63;5047094;28;20033;-25
2021/05/26 07:34:20;;;;;;;9.80;6.05;;;;;;;23.72;50.52;100211.81;5049077;28;20037;-25
2021/05/26 07:36:45;;;;;;;12.85;7.00;;;;;;;23.41;51.30;100201.50;5047397;28;20159;-25
2021/05/26 07:39:11;;;;;;;9.95;6.30;;;;;;;23.78;50.53;100207.91;5047017;28;20041;-25
2021/05/26 07:41:36;;;;;;;12.30;6.72;;;;;;;23.96;49.18;100206.97;5046955;28;20390;-25
2021/05/26 07:44:02;;;;;;;8.70;6.47;;;;;;;24.32;48.96;100208.13;5046741;28;20029;-25
2021/05/26 07:46:27;;;;;;;8.90;6.72;;;;;;;24.15;49.64;100195.94;5046461;28;20017;-25
2021/05/26 07:48:53;;;;;;;9.15;6.68;;;;;;;24.06;49.69;100208.66;5046578;28;20102;-25
2021/05/26 07:51:27;;;;;;;7.75;6.95;;;;;;;24.46;49.92;100197.97;5046397;28;20060;-25
2021/05/26 07:53:53;;;;;;;12.15;6.63;;;;;;;24.56;49.28;100203.22;5046757;28;20032;-25
2021/05/26 07:56:19;;;;;;;12.73;6.00;;;;;;;24.06;49.39;100214.91;5046457;28;20094;-25
2021/05/26 07:58:45;;;;;;;8.57;6.40;;;;;;;24.58;49.18;100208.34;5046768;28;20516;-25
2021/05/26 08:01:10;;;;;;;9.13;6.80;;;;;;;24.97;47.60;100212.31;5045538;28;20123;-25
2021/05/26 08:03:36;;;;;;;8.65;6.90;;;;;;;25.15;47.42;100213.19;5046739;28;20417;-26
2021/05/26 08:06:01;;;;;;;8.85;7.03;;;;;;;25.12;48.25;100209.19;5046482;28;20036;-25
2021/05/26 08:08:27;;;;;;;8.48;6.72;;;;;;;25.47;46.42;100220.28;5046608;28;20044;-25
2021/05/26 08:10:53;;;;;;;9.80;6.50;;;;;;;25.82;46.56;100210.28;5046666;28;20074;-25
2021/05/26 08:13:18;;;;;;;8.52;6.13;;;;;;;25.69;46.13;100194.03;5046948;28;20397;-25
2021/05/26 08:15:44;;;;;;;10.95;6.07;;;;;;;25.60;47.61;100213.94;5046531;28;20032;-25
2021/05/26 08:18:12;;;;;;;8.82;6.57;;;;;;;25.33;47.67;100211.41;5046385;28;20029;-25
2021/05/26 08:20:40;;;;;;;10.27;6.43;;;;;;;25.60;47.15;100203.00;5045137;28;20033;-25
2021/05/26 08:23:05;;;;;;;8.88;5.85;;;;;;;25.49;47.49;100211.78;5046484;28;20497;-25
2021/05/26 08:25:31;;;;;;;7.57;6.50;;;;;;;25.04;48.59;100201.75;5046640;28;20041;-26
2021/05/26 08:27:56;;;;;;;9.88;5.97;;;;;;;25.53;46.29;100207.31;5046891;28;20587;-25
2021/05/26 08:30:22;;;;;;;7.43;5.80;;;;;;;25.35;47.47;100217.34;5049926;28;20032;-25
2021/05/26 08:32:48;;;;;;;7.00;5.78;;;;;;;25.42;49.02;100196.66;5050193;28;20025;-25
2021/05/26 08:35:14;;;;;;;9.02;5.90;;;;;;;25.93;46.48;100199.91;5049616;28;20414;-25
2021/05/26 08:37:39;;;;;;;8.15;6.50;;;;;;;26.20;46.90;100198.00;5049981;28;20036;-25
2021/05/26 08:40:05;;;;;;;7.32;5.97;;;;;;;25.74;47.80;100200.13;5049805;28;20131;-25
2021/05/26 08:42:31;;;;;;;8.45;5.88;;;;;;;26.31;45.67;100193.81;5049673;28;20029;-25
2021/05/26 08:44:56;;;;;;;7.85;6.53;;;;;;;26.38;46.43;100196.09;5048641;28;20473;-25
2021/05/26 08:47:21;;;;;;;7.40;5.97;;;;;;;26.85;45.30;100202.50;5049499;28;20032;-25
2021/05/26 08:49:48;;;;;;;7.45;6.35;;;;;;;27.29;44.80;100190.63;5031767;28;20041;-25
2021/05/26 08:52:17;;;;;;;7.22;6.07;;;;;;;27.09;43.49;100190.19;5049578;28;20057;-26
2021/05/26 08:54:47;;;;;;;6.97;5.32;;;;;;;27.39;43.59;100187.53;5049618;28;20040;-25
2021/05/26 08:57:15;;;;;;;7.60;5.72;;;;;;;27.11;44.53;100182.44;5049498;28;20037;-25
2021/05/26 08:59:41;;;;;;;8.02;6.07;;;;;;;27.47;42.94;100191.38;5049566;28;20027;-25
2021/05/26 09:02:13;;;;;;;6.85;5.57;;;;;;;27.15;44.00;100177.91;5048935;28;20029;-25
2021/05/26 09:04:38;;;;;;;7.70;5.78;;;;;;;27.55;44.91;100193.25;5049549;28;20029;-25
2021/05/26 09:07:26;;;;;;;6.95;5.90;;;;;;;27.52;43.54;100186.50;5049345;28;20037;-26
2021/05/26 09:09:55;;;;;;;7.30;6.53;;;;;;;27.27;44.54;100180.00;5049285;28;20040;-25
2021/05/26 09:12:40;;;;;;;7.70;6.35;;;;;;;27.29;43.76;100193.38;5048882;28;20544;-25
2021/05/26 09:15:08;;;;;;;7.55;6.20;;;;;;;27.66;44.02;100191.75;5047993;28;20025;-25
2021/05/26 09:17:33;;;;;;;9.25;6.55;;;;;;;27.74;42.92;100190.09;5049091;28;20040;-25
2021/05/26 09:20:22;;;;;;;8.70;7.03;;;;;;;27.90;43.21;100182.13;5049205;28;20116;-25
2021/05/26 09:23:04;;;;;;;7.15;5.85;;;;;;;27.71;44.12;100180.59;5048817;28;20044;-25
2021/05/26 09:25:30;;;;;;;9.45;6.63;;;;;;;27.79;42.86;100170.72;5047892;28;20028;-26
2021/05/26 09:28:16;;;;;;;9.50;5.72;;;;;;;28.34;40.86;100172.44;5049018;28;20602;-25
2021/05/26 09:30:42;;;;;;;9.57;6.13;;;;;;;28.79;40.98;100160.72;5049075;28;20373;-22
2021/05/26 09:33:22;;;;;;;8.80;7.22;;;;;;;29.29;40.30;100166.31;5048611;28;20494;-22
2021/05/26 09:35:54;;;;;;;6.68;6.03;;;;;;;29.17;40.46;100143.19;5049038;28;20111;-22
2021/05/26 09:38:19;;;;;;;9.98;6.47;;;;;;;29.53;40.22;100162.78;5047264;28;20033;-22
2021/05/26 09:40:44;;;;;;;7.72;6.68;;;;;;;29.27;40.58;100168.59;5048142;28;20028;-24
2021/05/26 09:43:10;;;;;;;9.07;6.07;;;;;;;28.75;42.21;100159.81;5048920;28;20083;-22
2021/05/26 09:45:35;;;;;;;7.63;6.50;;;;;;;27.95;42.45;100155.34;5048565;28;20033;-22
2021/05/26 09:48:02;;;;;;;9.50;6.70;;;;;;;28.16;43.29;100160.00;5047150;28;20037;-22
2021/05/26 09:50:34;;;;;;;8.48;6.85;;;;;;;28.05;41.96;100154.94;5046732;28;20052;-22
2021/05/26 09:53:08;;;;;;;8.38;6.90;;;;;;;28.82;42.16;100160.03;5048422;28;20029;-22
2021/05/26 09:55:37;;;;;;;7.70;5.97;;;;;;;29.46;39.56;100160.59;5048530;28;20094;-22
2021/05/26 09:58:08;;;;;;;7.22;6.50;;;;;;;29.57;39.39;100145.25;5048150;28;20071;-22
2021/05/26 10:00:33;;;;;;;7.32;5.95;;;;;;;29.89;38.59;100150.13;5047972;28;20052;-22
2021/05/26 10:02:59;;;;;;;7.65;6.30;;;;;;;30.03;38.60;100134.06;5048295;28;20105;-22
2021/05/26 10:05:25;;;;;;;8.20;6.07;;;;;;;30.17;38.07;100133.69;5048255;28;20025;-22
2021/05/26 10:07:51;;;;;;;9.07;6.53;;;;;;;30.05;38.81;100129.00;5048349;28;20044;-22
2021/05/26 10:10:17;;;;;;;8.57;6.47;;;;;;;29.93;40.11;100124.34;5048050;28;20488;-22
2021/05/26 10:12:43;;;;;;;7.75;6.30;;;;;;;29.87;39.97;100123.00;5047925;28;20033;-22
2021/05/26 10:15:09;;;;;;;7.70;5.32;;;;;;;29.58;39.01;100113.06;5047854;28;20024;-22
2021/05/26 10:17:38;;;;;;;6.13;5.53;;;;;;;29.49;38.73;100110.47;5048169;28;20032;-22
2021/05/26 10:20:06;;;;;;;8.52;6.55;;;;;;;30.11;39.58;100116.63;5048143;28;20078;-22
2021/05/26 10:22:31;;;;;;;10.63;6.00;;;;;;;30.31;39.54;100114.84;5047783;28;20029;-22
2021/05/26 10:24:56;;;;;;;8.02;6.15;;;;;;;30.62;38.17;100116.06;5030233;28;20021;-22
2021/05/26 10:27:42;;;;;;;9.70;6.63;;;;;;;30.69;37.47;100121.75;5029908;28;20519;-22
2021/05/26 10:30:08;;;;;;;8.80;6.10;;;;;;;30.58;38.28;100109.66;5047971;28;20493;-22
2021/05/26 10:32:53;;;;;;;9.35;6.07;;;;;;;30.31;39.14;100117.59;5047470;28;20056;-22
2021/05/26 10:35:22;;;;;;;7.65;6.32;;;;;;;30.81;37.90;100091.41;5047774;28;20032;-22
2021/05/26 10:38:07;;;;;;;8.30;6.00;;;;;;;31.15;36.83;100100.09;5047490;28;20039;-24
2021/05/26 10:40:39;;;;;;;8.57;5.80;;;;;;;30.86;38.20;100115.09;5047458;28;20057;-22
2021/05/26 10:43:14;;;;;;;8.00;6.03;;;;;;;31.22;37.22;100108.56;5047536;28;20072;-22
2021/05/26 10:45:40;;;;;;;8.60;5.82;;;;;;;32.14;35.74;100097.19;5047325;28;20634;-22
2021/05/26 10:48:06;;;;;;;8.30;5.90;;;;;;;31.08;37.12;100091.69;5047459;28;20037;-22
2021/05/26 10:50:52;;;;;;;8.15;6.90;;;;;;;31.15;36.63;100094.59;5045060;28;20048;-22
2021/05/26 10:53:18;;;;;;;7.60;6.45;;;;;;;30.50;38.78;100081.16;5047535;28;20821;-22
2021/05/26 10:55:50;;;;;;;7.38;6.57;;;;;;;30.94;37.81;100083.09;5047489;28;20382;-22
2021/05/26 10:58:19;;;;;;;9.85;6.40;;;;;;;31.22;37.85;100093.94;5046135;28;20044;-22
2021/05/26 11:00:49;;;;;;;10.13;6.70;;;;;;;30.65;38.20;100068.56;5046965;28;20455;-22
2021/05/26 11:03:24;;;;;;;11.82;6.45;;;;;;;30.32;38.97;100069.69;5047315;28;20167;-22
2021/05/26 11:05:54;;;;;;;8.48;6.53;;;;;;;31.17;37.96;100070.25;5047500;28;20036;-22
2021/05/26 11:08:29;;;;;;;8.55;6.82;;;;;;;30.98;37.05;100072.94;5047161;28;20028;-22
2021/05/26 11:10:55;;;;;;;9.93;6.80;;;;;;;30.48;37.92;100052.41;5047023;28;20108;-22
2021/05/26 11:13:20;;;;;;;9.88;6.75;;;;;;;30.74;38.39;100041.66;5046883;28;20025;-22
2021/05/26 11:15:47;;;;;;;7.07;6.13;;;;;;;30.47;38.31;100053.56;5047070;28;20040;-22
2021/05/26 11:20:50;;;;;;;8.13;6.95;;;;;;;30.16;39.63;100044.06;5047110;28;20040;-22
2021/05/26 11:23:16;;;;;;;11.07;6.93;;;;;;;30.54;38.84;100042.72;5047121;28;20086;-22